Time;durP1;ratioP1;P1;durP2;ratioP2;P2;SDS_P1;SDS_P2;PMS_P1;PMS_P2;Temp;Humidity;BMP_temperature;BMP_pressure;BME280_temperature;BME280_humidity;BME280_pressure;Samples;Min_cycle;Max_cycle;Signal;HPM_P1;HPM_P2
2021/06/06 00:00:11;;;;;;;1.67;1.30;;;17.20;99.90;;;;;;5132731;28;20509;-76
2021/06/06 00:02:37;;;;;;;3.60;1.30;;;17.20;99.90;;;;;;5135403;27;20834;-78
2021/06/06 00:05:07;;;;;;;2.60;1.30;;;17.20;99.90;;;;;;5134843;27;20476;-76
2021/06/06 00:07:33;;;;;;;1.90;1.20;;;17.20;99.90;;;;;;5135097;27;20548;-77
2021/06/06 00:10:00;;;;;;;1.58;1.15;;;17.30;99.90;;;;;;5135587;27;20453;-77
2021/06/06 00:12:26;;;;;;;2.10;1.60;;;17.20;99.90;;;;;;5136935;27;20422;-77
2021/06/06 00:14:55;;;;;;;2.00;1.20;;;17.20;99.90;;;;;;5138732;27;20421;-77
2021/06/06 00:17:22;;;;;;;2.00;1.20;;;17.20;99.90;;;;;;5138164;27;20453;-77
2021/06/06 00:19:48;;;;;;;1.70;1.30;;;17.20;99.90;;;;;;5139076;27;20418;-75
2021/06/06 00:22:16;;;;;;;2.70;1.10;;;17.10;99.90;;;;;;5137801;27;20426;-76
2021/06/06 00:24:43;;;;;;;2.60;1.30;;;17.10;99.90;;;;;;5137641;27;20418;-76
2021/06/06 00:27:10;;;;;;;1.70;1.00;;;17.10;99.90;;;;;;5136502;27;20426;-76
2021/06/06 00:29:37;;;;;;;1.80;1.20;;;17.20;99.90;;;;;;5137370;27;20513;-75
2021/06/06 00:32:04;;;;;;;1.83;1.20;;;17.20;99.90;;;;;;5136837;27;20434;-75
2021/06/06 00:34:31;;;;;;;1.40;1.10;;;17.20;99.90;;;;;;5136506;27;20414;-75
2021/06/06 00:36:58;;;;;;;2.38;1.30;;;17.10;99.90;;;;;;5137067;27;20845;-76
2021/06/06 00:39:26;;;;;;;1.90;1.00;;;17.00;99.90;;;;;;5138033;27;20418;-76
2021/06/06 00:41:54;;;;;;;2.10;1.27;;;16.90;99.90;;;;;;5136586;27;20461;-76
2021/06/06 00:44:23;;;;;;;3.50;1.10;;;16.90;99.90;;;;;;5135915;27;20468;-76
2021/06/06 00:46:50;;;;;;;1.70;1.10;;;16.90;99.90;;;;;;5136797;27;20415;-76
2021/06/06 00:49:18;;;;;;;3.08;1.30;;;16.80;99.90;;;;;;5136573;27;20434;-76
2021/06/06 00:51:48;;;;;;;2.10;1.40;;;16.80;99.90;;;;;;5137589;27;20731;-76
2021/06/06 00:54:19;;;;;;;1.50;1.15;;;16.80;99.90;;;;;;5137814;27;20413;-76
2021/06/06 00:56:49;;;;;;;1.70;1.00;;;16.90;99.90;;;;;;5138909;27;20543;-76
2021/06/06 00:59:18;;;;;;;1.60;1.10;;;17.00;99.90;;;;;;5139322;27;20759;-76
2021/06/06 01:01:44;;;;;;;2.50;1.10;;;17.10;99.90;;;;;;5138479;27;20414;-76
2021/06/06 01:04:11;;;;;;;2.30;1.20;;;17.10;99.90;;;;;;5138685;27;20841;-76
2021/06/06 01:06:42;;;;;;;1.85;1.10;;;17.10;99.90;;;;;;5138722;27;20450;-76
2021/06/06 01:09:10;;;;;;;1.40;1.20;;;17.10;99.90;;;;;;5138935;27;20461;-76
2021/06/06 01:11:41;;;;;;;2.03;1.00;;;17.10;99.90;;;;;;5138702;27;20425;-74
2021/06/06 01:14:13;;;;;;;1.90;1.10;;;17.00;99.90;;;;;;5136952;27;20505;-75
2021/06/06 01:16:42;;;;;;;1.70;1.10;;;17.00;99.90;;;;;;5138617;27;20434;-76
2021/06/06 01:19:13;;;;;;;1.80;1.10;;;17.00;99.90;;;;;;5138513;27;20714;-75
2021/06/06 01:22:00;;;;;;;1.50;1.00;;;17.00;99.90;;;;;;5137126;27;20454;-75
2021/06/06 01:24:34;;;;;;;2.35;1.00;;;17.00;99.90;;;;;;5136259;27;20414;-75
2021/06/06 01:27:06;;;;;;;1.30;0.90;;;17.00;99.90;;;;;;5138301;27;20422;-75
2021/06/06 01:29:38;;;;;;;1.30;0.90;;;17.00;99.90;;;;;;5137540;27;20864;-76
2021/06/06 01:32:10;;;;;;;1.67;0.98;;;17.00;99.90;;;;;;5138087;27;20516;-75
2021/06/06 01:34:38;;;;;;;1.60;0.90;;;17.00;99.90;;;;;;5137951;27;20407;-76
2021/06/06 01:37:09;;;;;;;1.85;1.00;;;17.00;99.90;;;;;;5137192;27;20443;-75
2021/06/06 01:39:41;;;;;;;1.10;0.80;;;17.00;99.90;;;;;;5134822;27;20460;-75
2021/06/06 01:42:11;;;;;;;1.10;0.80;;;17.00;99.90;;;;;;5135331;27;20829;-75
2021/06/06 01:44:40;;;;;;;1.48;1.00;;;17.00;99.90;;;;;;5135611;27;20865;-76
2021/06/06 01:47:10;;;;;;;1.33;0.80;;;17.00;99.90;;;;;;5135127;27;20414;-76
2021/06/06 01:49:45;;;;;;;1.60;0.80;;;17.00;99.90;;;;;;5133407;27;20430;-76
2021/06/06 01:52:15;;;;;;;1.80;0.90;;;17.00;99.90;;;;;;5136258;27;20427;-76
2021/06/06 01:54:44;;;;;;;1.27;0.90;;;16.90;99.90;;;;;;5136210;27;20787;-76
2021/06/06 01:57:15;;;;;;;1.35;0.80;;;16.90;99.90;;;;;;5137541;27;20427;-75
2021/06/06 01:59:45;;;;;;;1.10;0.80;;;16.80;99.90;;;;;;5136773;27;20530;-75
2021/06/06 02:02:12;;;;;;;1.20;0.80;;;16.80;99.90;;;;;;5135514;27;20465;-75
2021/06/06 02:04:39;;;;;;;1.20;0.80;;;16.90;99.90;;;;;;5134421;27;20733;-76
2021/06/06 02:07:10;;;;;;;1.53;0.93;;;16.90;99.90;;;;;;5136027;27;20935;-75
2021/06/06 02:09:42;;;;;;;1.50;0.80;;;16.90;99.90;;;;;;5135619;27;20423;-76
2021/06/06 02:12:11;;;;;;;1.48;0.80;;;17.00;99.90;;;;;;5135696;27;20885;-77
2021/06/06 02:14:40;;;;;;;1.20;0.90;;;16.70;99.90;;;;;;5136484;27;20528;-76
2021/06/06 02:17:08;;;;;;;1.30;0.90;;;16.70;99.90;;;;;;5138154;27;20426;-76
2021/06/06 02:19:38;;;;;;;1.33;0.80;;;16.60;99.90;;;;;;5135640;27;20475;-76
2021/06/06 02:22:07;;;;;;;1.40;0.90;;;16.60;99.90;;;;;;5136131;27;20475;-76
2021/06/06 02:24:35;;;;;;;1.45;0.90;;;16.70;99.90;;;;;;5136450;27;20415;-75
2021/06/06 02:27:09;;;;;;;1.20;0.80;;;16.60;99.90;;;;;;5137708;27;20738;-76
2021/06/06 02:29:45;;;;;;;1.80;0.90;;;16.60;99.90;;;;;;5136676;27;20431;-76
2021/06/06 02:32:17;;;;;;;1.40;0.80;;;16.60;99.90;;;;;;5136448;27;20710;-76
2021/06/06 02:34:48;;;;;;;1.80;0.80;;;16.60;99.90;;;;;;5136974;27;20457;-76
2021/06/06 02:37:19;;;;;;;2.00;1.00;;;16.60;99.90;;;;;;5136613;27;20438;-75
2021/06/06 02:39:50;;;;;;;1.50;0.90;;;16.60;99.90;;;;;;5136270;27;20856;-77
2021/06/06 02:42:20;;;;;;;1.10;0.80;;;16.70;99.90;;;;;;5136680;27;20419;-77
2021/06/06 02:44:52;;;;;;;1.20;0.70;;;16.70;99.90;;;;;;5136478;27;20505;-77
2021/06/06 02:47:22;;;;;;;1.10;0.73;;;16.80;99.90;;;;;;5136357;27;20451;-77
2021/06/06 02:49:51;;;;;;;1.70;0.80;;;16.80;99.90;;;;;;5136105;27;20458;-77
2021/06/06 02:52:21;;;;;;;1.20;0.80;;;16.80;99.90;;;;;;5137356;27;20525;-77
2021/06/06 02:54:54;;;;;;;1.00;0.70;;;16.80;99.90;;;;;;5136085;27;20992;-77
2021/06/06 02:57:23;;;;;;;1.27;0.80;;;16.80;99.90;;;;;;5136552;27;20418;-77
2021/06/06 02:59:55;;;;;;;1.70;0.82;;;16.70;99.90;;;;;;5136692;27;20836;-77
2021/06/06 03:02:25;;;;;;;1.60;0.80;;;16.70;99.90;;;;;;5138866;27;20454;-77
2021/06/06 03:04:56;;;;;;;1.30;0.80;;;16.60;99.90;;;;;;5138489;27;20415;-77
2021/06/06 03:07:29;;;;;;;1.00;0.70;;;16.60;99.90;;;;;;5139032;27;20570;-77
2021/06/06 03:09:55;;;;;;;1.30;0.73;;;16.60;99.90;;;;;;5139021;27;20426;-77
2021/06/06 03:12:23;;;;;;;1.20;0.60;;;16.60;99.90;;;;;;5138477;27;20468;-77
2021/06/06 03:14:51;;;;;;;0.90;0.50;;;16.60;99.90;;;;;;5138251;27;20521;-77
2021/06/06 03:17:21;;;;;;;3.40;0.70;;;16.60;99.90;;;;;;5138370;27;20849;-77
2021/06/06 03:19:52;;;;;;;2.08;0.77;;;16.60;99.90;;;;;;5137983;27;20442;-77
2021/06/06 03:22:22;;;;;;;1.10;0.70;;;16.60;99.90;;;;;;5137714;28;20507;-77
2021/06/06 03:24:53;;;;;;;1.70;0.82;;;16.60;99.90;;;;;;5137363;28;20830;-77
2021/06/06 03:27:22;;;;;;;1.10;0.80;;;16.70;99.90;;;;;;5137283;28;20445;-76
2021/06/06 03:29:56;;;;;;;1.70;0.77;;;16.70;99.90;;;;;;5136186;28;20426;-76
2021/06/06 03:32:27;;;;;;;2.30;0.80;;;16.80;99.90;;;;;;5136733;28;20423;-76
2021/06/06 03:34:54;;;;;;;1.63;0.90;;;16.70;99.90;;;;;;5135592;28;20471;-76
2021/06/06 03:37:20;;;;;;;2.00;0.80;;;16.60;99.90;;;;;;5138117;27;20783;-76
2021/06/06 03:39:47;;;;;;;1.90;0.80;;;16.60;99.90;;;;;;5139186;27;20430;-77
2021/06/06 03:42:15;;;;;;;1.13;0.80;;;16.70;99.90;;;;;;5137019;27;20430;-76
2021/06/06 03:44:41;;;;;;;2.20;0.90;;;16.50;99.90;;;;;;5137674;27;20453;-77
2021/06/06 03:47:09;;;;;;;1.70;0.80;;;16.50;99.90;;;;;;5137860;27;20717;-76
2021/06/06 03:49:36;;;;;;;1.55;0.90;;;16.60;99.90;;;;;;5136299;27;20822;-76
2021/06/06 03:52:04;;;;;;;1.42;0.80;;;16.60;99.90;;;;;;5137496;27;20423;-76
2021/06/06 03:54:31;;;;;;;1.30;0.80;;;16.60;99.90;;;;;;5137804;27;21010;-76
2021/06/06 03:56:57;;;;;;;2.35;0.90;;;16.50;99.90;;;;;;5138879;27;20402;-77
2021/06/06 03:59:24;;;;;;;1.63;0.90;;;16.50;99.90;;;;;;5138376;27;20843;-76
2021/06/06 04:01:52;;;;;;;1.15;0.70;;;16.40;99.90;;;;;;5137850;27;20406;-76
2021/06/06 04:04:20;;;;;;;1.70;0.80;;;16.50;99.90;;;;;;5138934;27;20426;-76
2021/06/06 04:06:47;;;;;;;1.20;0.80;;;16.40;99.90;;;;;;5139749;27;20889;-77
2021/06/06 04:09:14;;;;;;;1.60;0.70;;;16.50;99.90;;;;;;5139440;27;20526;-77
2021/06/06 04:11:41;;;;;;;1.90;0.80;;;16.60;99.90;;;;;;5140187;27;20414;-75
2021/06/06 04:14:08;;;;;;;1.40;0.80;;;16.60;99.90;;;;;;5139842;27;20415;-76
2021/06/06 04:16:36;;;;;;;1.45;0.70;;;16.70;99.90;;;;;;5139687;27;20956;-76
2021/06/06 04:19:03;;;;;;;2.90;0.73;;;16.60;99.90;;;;;;5140007;27;20464;-76
2021/06/06 04:21:33;;;;;;;3.15;0.90;;;16.60;99.90;;;;;;5139460;27;20432;-76
2021/06/06 04:24:00;;;;;;;1.35;0.70;;;16.60;99.90;;;;;;5139610;27;20414;-76
2021/06/06 04:26:27;;;;;;;1.93;0.80;;;16.70;99.90;;;;;;5139759;27;20825;-76
2021/06/06 04:28:53;;;;;;;1.55;0.70;;;16.70;99.90;;;;;;5139422;27;20426;-76
2021/06/06 04:31:20;;;;;;;1.55;0.80;;;16.70;99.90;;;;;;5139549;27;20421;-76
2021/06/06 04:33:47;;;;;;;2.00;0.70;;;16.70;99.90;;;;;;5139825;27;20429;-76
2021/06/06 04:36:14;;;;;;;2.00;0.67;;;16.80;99.90;;;;;;5140074;27;20442;-76
2021/06/06 04:38:42;;;;;;;1.50;0.70;;;16.70;99.90;;;;;;5140199;27;20433;-76
2021/06/06 04:41:11;;;;;;;1.20;0.70;;;16.70;99.90;;;;;;5139805;27;20429;-76
2021/06/06 04:43:38;;;;;;;1.80;0.80;;;16.70;99.90;;;;;;5139577;27;20471;-77
2021/06/06 04:46:06;;;;;;;1.40;0.80;;;16.70;99.90;;;;;;5139084;27;20453;-75
2021/06/06 04:48:35;;;;;;;2.30;0.90;;;16.70;99.90;;;;;;5138829;27;20493;-77
2021/06/06 04:51:04;;;;;;;1.90;0.80;;;16.70;99.90;;;;;;5139062;27;20781;-77
2021/06/06 04:53:30;;;;;;;1.80;0.80;;;16.70;99.90;;;;;;5139777;27;20454;-76
2021/06/06 04:55:59;;;;;;;1.40;0.80;;;16.80;99.90;;;;;;5139001;27;21105;-76
2021/06/06 04:58:28;;;;;;;1.80;0.80;;;16.70;99.90;;;;;;5138331;27;20725;-76
2021/06/06 05:00:55;;;;;;;1.80;1.00;;;16.70;99.90;;;;;;5138692;27;20782;-76
2021/06/06 05:03:22;;;;;;;2.60;0.90;;;16.70;99.90;;;;;;5138053;27;20414;-75
2021/06/06 05:05:50;;;;;;;2.10;0.90;;;16.70;99.90;;;;;;5137942;27;20417;-75
2021/06/06 05:08:19;;;;;;;1.40;0.80;;;16.80;99.90;;;;;;5138947;27;20422;-77
2021/06/06 05:10:46;;;;;;;3.42;0.90;;;16.80;99.90;;;;;;5138305;27;20688;-76
2021/06/06 05:13:16;;;;;;;1.70;0.90;;;16.80;99.90;;;;;;5138281;27;20423;-75
2021/06/06 05:15:43;;;;;;;1.83;0.88;;;16.90;99.90;;;;;;5138952;27;20714;-75
2021/06/06 05:18:11;;;;;;;1.27;0.80;;;16.80;99.90;;;;;;5138485;27;20446;-76
2021/06/06 05:20:40;;;;;;;1.70;0.90;;;16.80;99.90;;;;;;5138299;27;20419;-76
2021/06/06 05:23:08;;;;;;;1.50;0.80;;;16.70;99.90;;;;;;5137421;27;20427;-76
2021/06/06 05:25:36;;;;;;;2.10;0.82;;;16.60;99.90;;;;;;5135801;27;20429;-75
2021/06/06 05:28:04;;;;;;;1.20;0.80;;;16.70;99.90;;;;;;5136723;27;20458;-76
2021/06/06 05:30:35;;;;;;;1.77;0.93;;;16.70;99.90;;;;;;5136640;27;20514;-77
2021/06/06 05:33:02;;;;;;;1.98;0.90;;;16.70;99.90;;;;;;5137822;27;20461;-75
2021/06/06 05:35:31;;;;;;;1.60;1.00;;;16.70;99.90;;;;;;5138071;27;20570;-75
2021/06/06 05:37:58;;;;;;;2.10;0.97;;;16.70;99.90;;;;;;5137852;27;20945;-76
2021/06/06 05:40:26;;;;;;;1.60;0.90;;;16.70;99.90;;;;;;5138107;27;20410;-76
2021/06/06 05:42:53;;;;;;;1.65;1.15;;;16.70;99.90;;;;;;5138263;27;20447;-75
2021/06/06 05:45:23;;;;;;;2.13;0.90;;;16.70;99.90;;;;;;5137533;27;20411;-76
2021/06/06 05:47:52;;;;;;;1.70;0.90;;;16.70;99.90;;;;;;5139858;27;20426;-76
2021/06/06 05:50:22;;;;;;;2.33;1.08;;;16.70;99.90;;;;;;5137337;27;20431;-76
2021/06/06 05:52:48;;;;;;;1.90;0.90;;;16.60;99.90;;;;;;5136687;27;20414;-76
2021/06/06 05:55:17;;;;;;;2.30;0.90;;;16.60;99.90;;;;;;5135744;27;20464;-76
2021/06/06 05:57:44;;;;;;;2.40;0.90;;;16.60;99.90;;;;;;5137032;27;20577;-75
2021/06/06 06:00:13;;;;;;;2.00;1.10;;;16.60;99.90;;;;;;5136307;27;20506;-76
2021/06/06 06:02:39;;;;;;;1.88;1.00;;;16.60;99.90;;;;;;5135036;27;20837;-76
2021/06/06 06:05:08;;;;;;;3.20;1.05;;;16.70;99.90;;;;;;5135821;27;20417;-76
2021/06/06 06:07:35;;;;;;;2.83;1.05;;;16.60;99.90;;;;;;5135624;27;20449;-76
2021/06/06 06:10:03;;;;;;;2.70;0.90;;;16.70;99.90;;;;;;5135891;27;20434;-76
2021/06/06 06:12:29;;;;;;;2.10;1.20;;;16.60;99.90;;;;;;5136464;27;20417;-76
2021/06/06 06:14:56;;;;;;;1.80;1.10;;;16.50;99.90;;;;;;5136443;27;20418;-76
2021/06/06 06:17:22;;;;;;;2.28;1.05;;;16.60;99.90;;;;;;5137349;27;20461;-76
2021/06/06 06:19:48;;;;;;;1.63;1.00;;;16.70;99.90;;;;;;5136890;27;20447;-75
2021/06/06 06:22:16;;;;;;;2.20;1.10;;;16.70;99.90;;;;;;5137066;27;20454;-74
2021/06/06 06:24:43;;;;;;;1.67;1.07;;;16.70;99.90;;;;;;5136258;27;20414;-75
2021/06/06 06:27:09;;;;;;;2.40;1.10;;;16.70;99.90;;;;;;5136345;27;20468;-76
2021/06/06 06:29:36;;;;;;;1.83;1.00;;;16.70;99.90;;;;;;5136578;27;20469;-76
2021/06/06 06:32:03;;;;;;;1.60;1.00;;;16.70;99.90;;;;;;5137191;27;20429;-76
2021/06/06 06:34:30;;;;;;;2.00;1.00;;;16.70;99.90;;;;;;5136908;27;20713;-76
2021/06/06 06:36:57;;;;;;;1.90;1.20;;;16.70;99.90;;;;;;5136770;27;20487;-75
2021/06/06 06:39:25;;;;;;;2.10;1.00;;;16.80;99.90;;;;;;5136317;27;20410;-74
2021/06/06 06:41:51;;;;;;;1.50;1.00;;;16.80;99.90;;;;;;5136243;27;20831;-74
2021/06/06 06:44:18;;;;;;;2.17;1.00;;;16.80;99.90;;;;;;5136808;27;20465;-74
2021/06/06 06:46:44;;;;;;;1.60;1.00;;;16.80;99.90;;;;;;5138188;27;20406;-73
2021/06/06 06:49:11;;;;;;;2.00;1.20;;;16.60;99.90;;;;;;5137555;27;20436;-74
2021/06/06 06:51:38;;;;;;;2.00;1.20;;;16.60;99.90;;;;;;5136967;27;20448;-74
2021/06/06 06:54:05;;;;;;;1.70;1.10;;;16.60;99.90;;;;;;5136686;27;20410;-73
2021/06/06 06:56:33;;;;;;;1.42;1.10;;;16.70;99.90;;;;;;5137199;27;20488;-74
2021/06/06 06:59:00;;;;;;;1.60;1.10;;;16.70;99.90;;;;;;5137419;27;20429;-74
2021/06/06 07:01:27;;;;;;;3.10;1.20;;;16.70;99.90;;;;;;5136329;27;20423;-74
2021/06/06 07:03:54;;;;;;;1.60;1.20;;;16.60;99.90;;;;;;5135852;27;20714;-75
2021/06/06 07:06:22;;;;;;;1.60;1.10;;;16.60;99.90;;;;;;5135417;27;20425;-74
2021/06/06 07:08:50;;;;;;;1.90;1.20;;;16.60;99.90;;;;;;5135737;27;20429;-75
2021/06/06 07:11:19;;;;;;;1.53;1.10;;;16.70;99.90;;;;;;5135612;27;20683;-74
2021/06/06 07:13:48;;;;;;;2.03;1.17;;;16.70;99.90;;;;;;5136058;27;20471;-76
2021/06/06 07:16:16;;;;;;;1.70;1.10;;;16.70;99.90;;;;;;5133775;27;20896;-75
2021/06/06 07:18:45;;;;;;;2.33;1.20;;;16.70;99.90;;;;;;5134176;27;20741;-75
2021/06/06 07:21:15;;;;;;;2.40;1.40;;;16.80;99.90;;;;;;5134944;27;20411;-76
2021/06/06 07:23:42;;;;;;;1.60;1.20;;;16.70;99.90;;;;;;5134357;28;20501;-74
2021/06/06 07:26:14;;;;;;;2.40;1.10;;;16.60;99.90;;;;;;5133813;28;20422;-73
2021/06/06 07:28:41;;;;;;;2.73;1.30;;;16.60;99.90;;;;;;5134412;28;20415;-74
2021/06/06 07:31:09;;;;;;;1.98;1.10;;;16.50;99.90;;;;;;5134626;28;20422;-76
2021/06/06 07:33:41;;;;;;;1.80;1.10;;;16.60;99.90;;;;;;5134596;28;20419;-76
2021/06/06 07:36:09;;;;;;;1.80;1.10;;;16.50;99.90;;;;;;5135120;28;20484;-74
2021/06/06 07:38:35;;;;;;;1.80;1.10;;;16.50;99.90;;;;;;5135776;28;20422;-74
2021/06/06 07:41:03;;;;;;;1.73;1.10;;;16.60;99.90;;;;;;5136535;28;20410;-75
2021/06/06 07:43:31;;;;;;;3.47;1.40;;;16.80;99.90;;;;;;5135891;28;20425;-73
2021/06/06 07:45:58;;;;;;;2.38;1.30;;;16.90;99.90;;;;;;5136045;28;20729;-74
2021/06/06 07:48:27;;;;;;;2.30;1.30;;;16.80;99.90;;;;;;5136052;28;20509;-74
2021/06/06 07:50:54;;;;;;;2.50;1.30;;;16.70;99.90;;;;;;5136062;28;20521;-73
2021/06/06 07:53:22;;;;;;;2.30;1.30;;;16.70;99.90;;;;;;5135371;28;20430;-75
2021/06/06 07:55:49;;;;;;;2.30;1.40;;;16.80;99.90;;;;;;5134986;28;20413;-75
2021/06/06 07:58:19;;;;;;;2.60;1.17;;;16.90;99.90;;;;;;5135200;28;20415;-73
2021/06/06 08:00:46;;;;;;;2.83;1.20;;;16.90;99.90;;;;;;5134903;28;20722;-75
2021/06/06 08:03:13;;;;;;;3.60;1.40;;;16.80;99.90;;;;;;5135709;28;20426;-75
2021/06/06 08:05:42;;;;;;;3.28;1.25;;;16.90;99.90;;;;;;5135430;28;20422;-76
2021/06/06 08:08:12;;;;;;;2.50;1.30;;;16.80;99.90;;;;;;5134562;28;20429;-73
2021/06/06 08:10:44;;;;;;;3.30;1.40;;;16.70;99.90;;;;;;5136566;28;20454;-76
2021/06/06 08:13:11;;;;;;;2.53;1.30;;;16.70;99.90;;;;;;5134973;28;20430;-74
2021/06/06 08:15:40;;;;;;;1.67;1.10;;;16.80;99.90;;;;;;5136997;28;20836;-76
2021/06/06 08:18:08;;;;;;;1.88;1.25;;;16.70;99.90;;;;;;5135898;28;20466;-75
2021/06/06 08:20:39;;;;;;;3.80;1.60;;;16.80;99.90;;;;;;5137112;28;20422;-75
2021/06/06 08:23:09;;;;;;;3.55;1.38;;;16.70;99.90;;;;;;5137385;27;20418;-74
2021/06/06 08:25:36;;;;;;;2.70;1.40;;;16.70;99.90;;;;;;5139946;27;20493;-74
2021/06/06 08:28:03;;;;;;;3.50;1.20;;;16.70;99.90;;;;;;5138379;27;20868;-74
2021/06/06 08:30:34;;;;;;;2.40;1.10;;;16.80;99.90;;;;;;5139582;27;20418;-75
2021/06/06 08:33:01;;;;;;;2.20;1.02;;;16.80;99.90;;;;;;5139557;27;20781;-74
2021/06/06 08:35:27;;;;;;;3.30;1.30;;;16.90;99.90;;;;;;5138050;27;20423;-74
2021/06/06 08:37:57;;;;;;;2.30;1.30;;;16.80;99.90;;;;;;5139048;27;20815;-75
2021/06/06 08:40:30;;;;;;;3.10;1.10;;;16.90;99.90;;;;;;5138383;27;20415;-73
2021/06/06 08:42:57;;;;;;;3.65;1.45;;;16.90;99.90;;;;;;5138638;27;20426;-74
2021/06/06 08:45:32;;;;;;;2.55;1.30;;;17.00;99.90;;;;;;5137648;27;20716;-76
2021/06/06 08:48:02;;;;;;;4.75;1.70;;;17.00;99.90;;;;;;5135893;27;20470;-74
2021/06/06 08:50:31;;;;;;;2.92;1.40;;;17.10;99.90;;;;;;5138164;27;20738;-75
2021/06/06 08:53:07;;;;;;;3.83;1.50;;;17.00;99.90;;;;;;5136806;27;20461;-77
2021/06/06 08:55:41;;;;;;;2.88;1.35;;;17.00;99.90;;;;;;5138987;27;20418;-77
2021/06/06 08:58:21;;;;;;;3.10;1.40;;;17.00;99.90;;;;;;5138045;27;20434;-76
2021/06/06 09:00:55;;;;;;;3.80;1.80;;;17.00;99.90;;;;;;5137997;27;20966;-74
2021/06/06 09:03:24;;;;;;;3.05;1.60;;;16.90;99.90;;;;;;5135971;27;20485;-75
2021/06/06 09:06:00;;;;;;;2.63;1.40;;;17.00;99.90;;;;;;5135808;27;20510;-76
2021/06/06 09:08:30;;;;;;;4.57;1.60;;;17.20;99.90;;;;;;5136070;27;20507;-75
2021/06/06 09:11:01;;;;;;;2.83;1.20;;;17.10;99.90;;;;;;5135707;27;20469;-75
2021/06/06 09:13:30;;;;;;;2.60;1.20;;;17.20;99.90;;;;;;5136927;27;20411;-74
2021/06/06 09:16:12;;;;;;;1.73;1.20;;;17.20;99.90;;;;;;5137778;27;20431;-76
2021/06/06 09:18:44;;;;;;;3.60;1.63;;;17.20;99.90;;;;;;5121991;27;20427;-75
2021/06/06 09:21:14;;;;;;;2.28;1.40;;;17.10;99.90;;;;;;5116374;28;20842;-75
2021/06/06 09:23:41;;;;;;;3.25;1.88;;;17.00;99.90;;;;;;5116762;28;20862;-76
2021/06/06 09:26:11;;;;;;;2.45;1.40;;;17.00;99.90;;;;;;5117096;28;20560;-76
2021/06/06 09:28:40;;;;;;;3.40;1.70;;;17.10;99.90;;;;;;5116265;27;20429;-76
2021/06/06 09:31:08;;;;;;;3.42;1.80;;;17.00;99.90;;;;;;5116094;28;20425;-75
2021/06/06 09:33:37;;;;;;;3.13;1.98;;;16.90;99.90;;;;;;5115866;27;20459;-75
2021/06/06 09:36:07;;;;;;;3.50;2.03;;;16.90;99.90;;;;;;5116648;28;20428;-76
2021/06/06 09:38:38;;;;;;;4.00;2.15;;;17.00;99.90;;;;;;5116869;28;20470;-74
2021/06/06 09:41:33;;;;;;;3.35;1.95;;;17.10;99.90;;;;;;5116460;28;20861;-75
2021/06/06 09:44:04;;;;;;;4.22;1.70;;;17.10;99.90;;;;;;5114494;28;20432;-76
2021/06/06 09:46:40;;;;;;;3.47;2.00;;;17.20;99.90;;;;;;5115749;27;20435;-74
2021/06/06 09:49:12;;;;;;;3.53;2.10;;;17.30;99.90;;;;;;5121814;27;20852;-77
2021/06/06 09:51:38;;;;;;;4.53;2.65;;;17.50;99.90;;;;;;5132505;27;20640;-77
2021/06/06 09:54:10;;;;;;;5.03;2.80;;;17.40;99.90;;;;;;5133171;27;20487;-75
2021/06/06 09:56:39;;;;;;;4.90;2.90;;;17.30;99.90;;;;;;5135263;27;20438;-77
2021/06/06 09:59:14;;;;;;;5.38;3.40;;;17.20;99.90;;;;;;5137276;27;20507;-75
2021/06/06 10:01:51;;;;;;;6.03;3.85;;;17.20;99.90;;;;;;5136690;27;20472;-76
2021/06/06 10:04:20;;;;;;;7.87;4.00;;;17.30;99.90;;;;;;5135886;27;20418;-76
2021/06/06 10:06:47;;;;;;;6.50;4.10;;;17.10;99.90;;;;;;5137860;27;20483;-77
2021/06/06 10:09:24;;;;;;;5.13;3.70;;;17.20;99.90;;;;;;5137299;27;20746;-75
2021/06/06 10:11:58;;;;;;;7.20;4.53;;;17.20;99.90;;;;;;5138026;27;20810;-73
2021/06/06 10:14:30;;;;;;;6.67;4.60;;;17.40;99.90;;;;;;5134145;27;20465;-75
2021/06/06 10:17:01;;;;;;;7.15;5.20;;;17.40;99.90;;;;;;5134939;27;20894;-74
2021/06/06 10:19:33;;;;;;;10.32;5.05;;;17.60;99.90;;;;;;5133954;27;20442;-74
2021/06/06 10:22:06;;;;;;;9.30;6.47;;;17.70;99.90;;;;;;5135437;27;20422;-74
2021/06/06 10:24:46;;;;;;;10.27;7.28;;;17.60;99.90;;;;;;5134895;27;20523;-74
2021/06/06 10:27:21;;;;;;;9.35;6.40;;;17.50;99.90;;;;;;5155794;27;20711;-75
2021/06/06 10:29:54;;;;;;;8.80;6.60;;;17.50;99.90;;;;;;5155798;27;20516;-76
2021/06/06 10:32:27;;;;;;;9.43;6.63;;;17.50;99.90;;;;;;5154812;27;20481;-76
2021/06/06 10:34:58;;;;;;;10.53;7.00;;;17.50;99.90;;;;;;5140296;27;20799;-77
2021/06/06 10:37:26;;;;;;;9.75;5.95;;;17.60;99.90;;;;;;5155005;27;20440;-74
2021/06/06 10:39:56;;;;;;;9.77;7.27;;;17.70;99.90;;;;;;5156898;27;20516;-74
2021/06/06 10:42:29;;;;;;;8.23;6.15;;;17.90;99.90;;;;;;5154584;27;20756;-73
2021/06/06 10:45:06;;;;;;;11.03;7.30;;;18.00;99.90;;;;;;5136677;27;20445;-76
2021/06/06 10:47:42;;;;;;;12.05;8.18;;;17.70;99.90;;;;;;5143689;27;20429;-75
2021/06/06 10:50:32;;;;;;;10.93;7.95;;;17.50;99.90;;;;;;5149790;27;20925;-77
2021/06/06 10:53:18;;;;;;;11.13;7.00;;;17.50;99.90;;;;;;5135782;27;20426;-75
2021/06/06 10:56:29;;;;;;;14.25;8.43;;;17.50;99.90;;;;;;5133969;27;20438;-76
2021/06/06 10:58:59;;;;;;;11.00;7.97;;;17.40;99.90;;;;;;5051809;28;20583;-76
2021/06/06 11:01:30;;;;;;;12.80;8.97;;;17.30;99.90;;;;;;5134195;27;20446;-76
2021/06/06 11:04:10;;;;;;;12.00;8.57;;;17.30;99.90;;;;;;5143966;27;20517;-76
2021/06/06 11:06:37;;;;;;;15.07;10.38;;;17.50;99.90;;;;;;5134903;27;20458;-74
2021/06/06 11:09:07;;;;;;;14.52;9.90;;;17.60;99.90;;;;;;5135165;27;20845;-75
2021/06/06 11:11:35;;;;;;;17.15;10.40;;;17.70;99.90;;;;;;5137067;27;20432;-75
2021/06/06 11:14:18;;;;;;;17.50;11.30;;;17.50;99.90;;;;;;5155069;27;20428;-77
2021/06/06 11:16:47;;;;;;;17.60;12.33;;;17.50;99.90;;;;;;5154138;27;20448;-75
2021/06/06 11:19:27;;;;;;;18.00;12.75;;;17.60;99.90;;;;;;5156873;27;20429;-77
2021/06/06 11:21:57;;;;;;;19.67;13.40;;;17.50;99.90;;;;;;5114236;28;20837;-78
2021/06/06 11:24:44;;;;;;;14.27;10.30;;;17.60;99.90;;;;;;5143301;27;20814;-76
2021/06/06 11:27:30;;;;;;;17.10;12.10;;;17.60;99.90;;;;;;5153287;27;20417;-76
2021/06/06 11:30:03;;;;;;;21.15;13.63;;;17.60;99.90;;;;;;5132461;27;20679;-75
2021/06/06 11:32:55;;;;;;;21.57;14.33;;;17.40;99.90;;;;;;5149803;27;20737;-76
2021/06/06 11:35:41;;;;;;;23.42;15.57;;;17.30;99.90;;;;;;5154421;27;20751;-76
2021/06/06 11:38:27;;;;;;;26.33;16.60;;;17.20;99.90;;;;;;5114254;28;20772;-74
2021/06/06 11:41:07;;;;;;;26.43;16.70;;;17.20;99.90;;;;;;5116114;27;20440;-74
2021/06/06 11:43:37;;;;;;;23.90;15.95;;;17.20;99.90;;;;;;5153304;27;20429;-75
2021/06/06 11:46:16;;;;;;;26.05;17.38;;;17.20;99.90;;;;;;5146288;27;20742;-76
2021/06/06 11:48:55;;;;;;;28.95;17.48;;;17.10;99.90;;;;;;5134686;28;20468;-75
2021/06/06 11:51:37;;;;;;;24.43;16.30;;;16.90;99.90;;;;;;5139399;27;20426;-75
2021/06/06 11:54:09;;;;;;;27.65;17.60;;;17.10;99.90;;;;;;5155160;27;20405;-76
2021/06/06 11:56:40;;;;;;;25.15;16.20;;;17.20;99.90;;;;;;5155284;27;20466;-76
2021/06/06 11:59:14;;;;;;;21.50;15.15;;;17.40;99.90;;;;;;5157353;27;20468;-76
2021/06/06 12:01:56;;;;;;;21.63;15.47;;;17.50;99.90;;;;;;5160325;27;20443;-74
2021/06/06 12:04:30;;;;;;;26.17;15.60;;;17.60;99.90;;;;;;5132206;27;20741;-73
2021/06/06 12:06:56;;;;;;;21.05;14.82;;;17.50;99.90;;;;;;5151435;27;20859;-75
2021/06/06 12:09:30;;;;;;;18.95;13.60;;;17.50;99.90;;;;;;5136084;27;20430;-76
2021/06/06 12:12:08;;;;;;;18.77;13.98;;;17.60;99.90;;;;;;5142019;27;21001;-76
2021/06/06 12:14:35;;;;;;;20.63;13.48;;;17.70;99.90;;;;;;5141490;27;20877;-76
2021/06/06 12:17:06;;;;;;;18.52;12.63;;;17.70;99.90;;;;;;5139137;27;20472;-74
2021/06/06 12:19:42;;;;;;;18.15;13.07;;;17.60;99.90;;;;;;5151067;27;20473;-74
2021/06/06 12:22:12;;;;;;;18.88;12.27;;;17.70;99.90;;;;;;5154565;27;20791;-74
2021/06/06 12:24:39;;;;;;;19.58;13.10;;;17.80;99.90;;;;;;5143580;27;20422;-75
2021/06/06 12:27:14;;;;;;;15.82;11.38;;;17.90;99.90;;;;;;5145665;27;20436;-73
2021/06/06 12:29:48;;;;;;;16.90;11.50;;;17.90;99.90;;;;;;5157534;27;20420;-75
2021/06/06 12:32:24;;;;;;;20.10;12.87;;;18.10;99.90;;;;;;5138701;27;20438;-74
2021/06/06 12:34:51;;;;;;;21.77;16.20;;;17.90;99.90;;;;;;5117450;28;20843;-73
2021/06/06 12:37:20;;;;;;;16.05;11.70;;;17.90;99.90;;;;;;5134569;27;20552;-75
2021/06/06 12:39:51;;;;;;;15.30;9.87;;;17.90;99.90;;;;;;5151231;27;20764;-75
2021/06/06 12:42:18;;;;;;;13.90;10.02;;;17.90;99.90;;;;;;5155763;27;20876;-74
2021/06/06 12:44:48;;;;;;;14.73;10.63;;;17.90;99.90;;;;;;5139735;27;20438;-75
2021/06/06 12:47:26;;;;;;;15.18;11.02;;;17.80;99.90;;;;;;5137243;27;20437;-75
2021/06/06 12:49:55;;;;;;;14.88;11.43;;;17.90;99.90;;;;;;5156386;27;20432;-75
2021/06/06 12:52:27;;;;;;;17.50;11.95;;;17.90;99.90;;;;;;5140253;27;20426;-75
2021/06/06 12:54:55;;;;;;;15.85;10.88;;;17.80;99.90;;;;;;5125404;27;20555;-74
2021/06/06 12:57:24;;;;;;;15.02;10.30;;;17.80;99.90;;;;;;5152675;27;20973;-74